createdAt,value
2018-10-09T00:01:00.456Z,40.53
2018-10-09T00:03:30.632Z,40.20
2018-10-09T00:06:00.811Z,40.80
2018-10-09T00:08:30.914Z,40.67
2018-10-09T00:11:01.042Z,40.57
2018-10-09T00:13:31.296Z,40.53
2018-10-09T00:16:08.362Z,40.63
2018-10-09T00:18:38.468Z,41.13
2018-10-09T00:21:08.975Z,40.50
2018-10-09T00:23:39.484Z,40.97
2018-10-09T00:26:09.447Z,40.63
2018-10-09T00:28:40.382Z,40.53
2018-10-09T00:31:12.135Z,40.07
2018-10-09T00:33:42.746Z,41.27
2018-10-09T00:36:12.990Z,40.47
2018-10-09T00:38:43.064Z,40.10
2018-10-09T00:41:14.442Z,40.90
2018-10-09T00:43:45.683Z,39.43
2018-10-09T00:46:17.712Z,40.23
2018-10-09T00:48:48.121Z,40.30
2018-10-09T00:51:18.717Z,40.23
2018-10-09T00:53:49.078Z,40.13
2018-10-09T00:56:19.582Z,40.60
2018-10-09T00:58:50.596Z,40.57
2018-10-09T01:01:20.995Z,41.90
2018-10-09T01:03:51.229Z,40.80
2018-10-09T01:06:21.618Z,40.57
2018-10-09T01:08:52.140Z,41.10
2018-10-09T01:11:22.352Z,41.07
2018-10-09T01:13:52.532Z,40.20
2018-10-09T01:16:22.697Z,41.13
2018-10-09T01:18:52.892Z,40.90
2018-10-09T01:21:24.572Z,40.93
2018-10-09T01:23:56.034Z,40.83
2018-10-09T01:26:26.266Z,40.73
2018-10-09T01:28:56.412Z,41.30
2018-10-09T01:31:26.849Z,40.93
2018-10-09T01:34:03.949Z,41.03
2018-10-09T01:36:34.801Z,41.17
2018-10-09T01:39:06.296Z,41.20
2018-10-09T01:41:36.489Z,41.40
2018-10-09T01:44:06.895Z,41.57
2018-10-09T01:46:37.036Z,40.47
2018-10-09T01:49:07.340Z,40.47
2018-10-09T01:51:37.360Z,40.30
2018-10-09T01:54:08.073Z,40.50
2018-10-09T01:56:38.179Z,40.60
2018-10-09T01:59:08.606Z,40.07
2018-10-09T02:01:38.875Z,40.23
2018-10-09T02:04:09.142Z,40.20
2018-10-09T02:06:39.474Z,40.37
2018-10-09T02:09:10.755Z,40.37
2018-10-09T02:11:40.978Z,40.40
2018-10-09T02:14:11.302Z,39.80
2018-10-09T02:16:41.479Z,40.03
2018-10-09T02:19:11.576Z,39.50
2018-10-09T02:21:42.178Z,40.37
2018-10-09T02:24:12.492Z,40.83
2018-10-09T02:26:42.657Z,40.23
2018-10-09T02:29:13.198Z,40.13
2018-10-09T02:31:43.558Z,39.90
2018-10-09T02:34:14.180Z,40.53
2018-10-09T02:36:45.613Z,40.07
2018-10-09T02:39:15.982Z,40.13
2018-10-09T02:41:46.156Z,40.13
2018-10-09T02:44:18.570Z,40.33
2018-10-09T02:46:48.674Z,39.57
2018-10-09T02:49:19.125Z,40.17
2018-10-09T02:51:49.046Z,40.57
2018-10-09T02:54:19.755Z,40.20
2018-10-09T02:56:49.756Z,40.47
2018-10-09T02:59:20.021Z,40.57
2018-10-09T03:01:50.411Z,40.95
2018-10-09T03:04:21.219Z,39.93
2018-10-09T03:06:51.347Z,40.10
2018-10-09T03:09:21.925Z,40.40
2018-10-09T03:11:53.089Z,40.30
2018-10-09T03:14:25.606Z,39.93
2018-10-09T03:16:55.812Z,39.27
2018-10-09T03:19:25.909Z,40.87
2018-10-09T03:21:56.068Z,40.17
2018-10-09T03:24:26.888Z,39.00
2018-10-09T03:26:57.161Z,39.47
2018-10-09T03:29:27.312Z,40.33
2018-10-09T03:31:57.964Z,40.30
2018-10-09T03:34:28.139Z,40.63
2018-10-09T03:36:58.315Z,39.83
2018-10-09T03:39:28.510Z,40.23
2018-10-09T03:41:58.806Z,39.97
2018-10-09T03:44:28.998Z,40.43
2018-10-09T03:46:59.292Z,40.47
2018-10-09T03:49:30.008Z,39.90
2018-10-09T03:52:00.261Z,39.80
2018-10-09T03:54:30.854Z,40.23
2018-10-09T03:57:00.961Z,40.63
2018-10-09T03:59:31.152Z,39.90
2018-10-09T04:02:01.387Z,40.77
2018-10-09T04:04:31.734Z,39.83
2018-10-09T04:07:02.171Z,40.07
2018-10-09T04:09:32.384Z,39.83
2018-10-09T04:12:02.705Z,40.10
2018-10-09T04:14:32.805Z,39.93
2018-10-09T04:17:02.912Z,40.53
2018-10-09T04:19:33.219Z,40.40
2018-10-09T04:22:03.284Z,40.10
2018-10-09T04:24:33.530Z,40.13
2018-10-09T04:27:03.752Z,40.37
2018-10-09T04:29:34.366Z,40.17
2018-10-09T04:32:04.810Z,40.27
2018-10-09T04:34:35.264Z,40.43
2018-10-09T04:37:05.654Z,39.90
2018-10-09T04:39:36.100Z,40.43
2018-10-09T04:42:06.315Z,40.40
2018-10-09T04:44:36.746Z,40.13
2018-10-09T04:47:07.150Z,40.17
2018-10-09T04:49:37.512Z,40.73
2018-10-09T04:52:08.335Z,41.00
2018-10-09T04:54:40.038Z,40.33
2018-10-09T04:57:10.294Z,40.60
2018-10-09T04:59:40.651Z,40.20
2018-10-09T05:02:10.830Z,40.17
2018-10-09T05:04:41.101Z,40.07
2018-10-09T05:07:11.231Z,40.50
2018-10-09T05:09:41.438Z,40.60
2018-10-09T05:12:11.782Z,40.37
2018-10-09T05:14:44.126Z,40.33
2018-10-09T05:17:14.832Z,41.00
2018-10-09T05:19:48.318Z,40.23
2018-10-09T05:22:20.361Z,40.20
2018-10-09T05:24:50.438Z,40.57
2018-10-09T05:27:20.511Z,40.17
2018-10-09T05:29:50.816Z,40.47
2018-10-09T05:32:21.772Z,40.33
2018-10-09T05:34:52.054Z,40.80
2018-10-09T05:37:22.333Z,40.83
2018-10-09T05:39:52.433Z,40.43
2018-10-09T05:42:23.647Z,39.73
2018-10-09T05:44:54.469Z,39.73
2018-10-09T05:47:25.389Z,40.57
2018-10-09T05:49:55.629Z,39.93
2018-10-09T05:52:25.882Z,40.17
2018-10-09T05:54:56.295Z,40.23
2018-10-09T05:57:26.389Z,40.97
2018-10-09T05:59:56.348Z,41.03
2018-10-09T06:02:26.642Z,40.87
2018-10-09T06:04:57.097Z,41.50
2018-10-09T06:07:27.376Z,39.50
2018-10-09T06:09:59.150Z,40.13
2018-10-09T06:12:29.554Z,40.03
2018-10-09T06:14:59.923Z,39.93
2018-10-09T06:17:30.028Z,39.80
2018-10-09T06:20:00.376Z,40.87
2018-10-09T06:22:30.758Z,39.73
2018-10-09T06:25:00.778Z,39.90
2018-10-09T06:27:31.370Z,40.03
2018-10-09T06:30:01.446Z,40.30
2018-10-09T06:32:31.682Z,40.30
2018-10-09T06:35:02.502Z,40.07
2018-10-09T06:37:33.068Z,40.30
2018-10-09T06:40:03.969Z,39.80
2018-10-09T06:42:34.149Z,40.20
2018-10-09T06:45:04.194Z,39.73
2018-10-09T06:47:34.253Z,40.37
2018-10-09T06:50:04.480Z,40.23
2018-10-09T06:52:35.159Z,39.97
2018-10-09T06:55:05.348Z,39.83
2018-10-09T06:57:36.287Z,39.87
2018-10-09T07:00:06.542Z,40.10
2018-10-09T07:02:37.053Z,40.83
2018-10-09T07:05:07.684Z,40.23
2018-10-09T07:07:37.905Z,40.50
2018-10-09T07:10:08.571Z,39.67
2018-10-09T07:12:39.335Z,39.67
2018-10-09T07:15:09.924Z,39.90
2018-10-09T07:17:39.973Z,39.93
2018-10-09T07:20:10.032Z,40.47
2018-10-09T07:22:40.423Z,39.77
2018-10-09T07:25:10.585Z,40.10
2018-10-09T07:27:40.533Z,40.30
2018-10-09T07:30:11.221Z,40.30
2018-10-09T07:32:41.583Z,40.07
2018-10-09T07:35:12.298Z,40.90
2018-10-09T07:37:42.509Z,41.03
2018-10-09T07:40:12.993Z,41.37
2018-10-09T07:42:43.705Z,40.87
2018-10-09T07:45:14.472Z,41.70
2018-10-09T07:47:44.607Z,41.37
2018-10-09T07:50:15.499Z,42.60
2018-10-09T07:52:46.224Z,42.07
2018-10-09T07:55:16.356Z,42.30
2018-10-09T07:57:46.291Z,42.00
2018-10-09T08:00:16.807Z,42.87
2018-10-09T08:02:46.756Z,41.43
2018-10-09T08:05:17.213Z,41.73
2018-10-09T08:07:47.987Z,40.50
2018-10-09T08:10:18.174Z,41.17
2018-10-09T08:12:48.337Z,42.13
2018-10-09T08:15:18.755Z,42.37
2018-10-09T08:17:49.305Z,41.33
2018-10-09T08:20:19.365Z,40.90
2018-10-09T08:22:49.896Z,41.87
2018-10-09T08:25:19.943Z,42.13
2018-10-09T08:27:49.863Z,41.47
2018-10-09T08:30:22.758Z,42.00
2018-10-09T08:32:52.794Z,42.70
2018-10-09T08:35:23.338Z,42.43
2018-10-09T08:37:56.121Z,42.10
2018-10-09T08:40:26.479Z,42.10
2018-10-09T08:42:56.442Z,42.40
2018-10-09T08:45:26.490Z,42.60
2018-10-09T08:47:57.638Z,42.60
2018-10-09T08:50:27.831Z,41.73
2018-10-09T08:52:58.384Z,42.97
2018-10-09T08:55:28.667Z,41.83
2018-10-09T08:57:58.792Z,41.90
2018-10-09T09:00:29.996Z,42.50
2018-10-09T09:03:00.996Z,42.13
2018-10-09T09:05:36.028Z,42.27
2018-10-09T09:08:06.206Z,42.23
2018-10-09T09:10:36.381Z,41.80
2018-10-09T09:13:06.728Z,41.83
2018-10-09T09:15:36.809Z,42.57
2018-10-09T09:18:07.059Z,41.70
2018-10-09T09:20:37.281Z,42.23
2018-10-09T09:23:07.808Z,42.33
2018-10-09T09:25:38.167Z,41.37
2018-10-09T09:28:08.267Z,42.33
2018-10-09T09:30:38.679Z,42.20
2018-10-09T09:33:09.232Z,42.03
2018-10-09T09:35:39.394Z,41.90
2018-10-09T09:38:09.627Z,41.50
2018-10-09T09:40:39.854Z,41.77
2018-10-09T09:43:10.503Z,41.60
2018-10-09T09:45:41.808Z,41.03
2018-10-09T09:48:12.330Z,42.17
2018-10-09T09:50:42.694Z,41.60
2018-10-09T09:53:12.928Z,42.30
2018-10-09T09:55:46.126Z,41.60
2018-10-09T09:58:17.964Z,41.13
2018-10-09T10:01:07.435Z,40.53
2018-10-09T10:03:39.247Z,40.33
2018-10-09T10:06:09.506Z,41.27
2018-10-09T10:08:40.038Z,41.70
2018-10-09T10:11:17.200Z,41.47
2018-10-09T10:13:47.827Z,40.83
2018-10-09T10:16:18.383Z,41.17
2018-10-09T10:18:48.898Z,40.87
2018-10-09T10:21:19.380Z,41.20
2018-10-09T10:23:49.740Z,42.10
2018-10-09T10:26:20.499Z,40.47
2018-10-09T10:28:50.910Z,41.13
2018-10-09T10:31:20.864Z,40.87
2018-10-09T10:33:51.071Z,40.93
2018-10-09T10:36:21.418Z,41.20
2018-10-09T10:38:51.703Z,40.83
2018-10-09T10:41:28.549Z,41.20
2018-10-09T10:43:58.812Z,41.63
2018-10-09T10:46:41.550Z,41.60
2018-10-09T10:49:13.163Z,42.30
2018-10-09T10:51:43.245Z,42.50
2018-10-09T10:54:13.949Z,42.67
2018-10-09T10:56:43.964Z,41.73
2018-10-09T10:59:14.251Z,41.53
2018-10-09T11:01:44.252Z,47.90
2018-10-09T11:04:15.245Z,42.40
2018-10-09T11:06:45.564Z,41.63
2018-10-09T11:09:16.914Z,42.13
2018-10-09T11:11:47.032Z,41.80
2018-10-09T11:14:17.165Z,41.73
2018-10-09T11:16:47.583Z,42.07
2018-10-09T11:19:17.830Z,41.30
2018-10-09T11:21:48.051Z,41.40
2018-10-09T11:24:18.477Z,41.87
2018-10-09T11:26:48.459Z,41.77
2018-10-09T11:29:18.368Z,42.33
2018-10-09T11:31:48.754Z,41.80
2018-10-09T11:34:19.238Z,41.73
2018-10-09T11:36:50.404Z,41.40
2018-10-09T11:39:20.798Z,42.17
2018-10-09T11:41:51.797Z,41.77
2018-10-09T11:44:21.852Z,42.07
2018-10-09T11:46:51.774Z,41.70
2018-10-09T11:49:22.015Z,41.93
2018-10-09T11:51:52.548Z,41.87
2018-10-09T11:54:22.786Z,41.77
2018-10-09T11:56:53.301Z,41.20
2018-10-09T11:59:23.287Z,43.03
2018-10-09T12:01:53.527Z,41.40
2018-10-09T12:04:23.617Z,42.03
2018-10-09T12:06:53.562Z,42.13
2018-10-09T12:09:23.779Z,41.80
2018-10-09T12:11:53.887Z,42.37
2018-10-09T12:14:24.327Z,42.07
2018-10-09T12:16:54.483Z,41.87
2018-10-09T12:19:25.004Z,41.40
2018-10-09T12:21:56.123Z,42.23
2018-10-09T12:24:26.244Z,40.80
2018-10-09T12:26:57.518Z,42.30
2018-10-09T12:29:28.497Z,41.77
2018-10-09T12:31:58.611Z,41.83
2018-10-09T12:34:29.853Z,42.20
2018-10-09T12:36:59.919Z,42.10
2018-10-09T12:39:29.915Z,42.33
2018-10-09T12:42:00.048Z,42.70
2018-10-09T12:44:30.169Z,42.33
2018-10-09T12:47:00.783Z,41.57
2018-10-09T12:49:30.953Z,42.10
2018-10-09T12:52:01.387Z,42.10
2018-10-09T12:54:32.713Z,42.17
2018-10-09T12:57:03.282Z,42.43
2018-10-09T12:59:34.581Z,42.00
2018-10-09T13:02:05.039Z,41.70
2018-10-09T13:04:35.274Z,42.07
2018-10-09T13:07:05.525Z,42.57
2018-10-09T13:09:35.944Z,42.40
2018-10-09T13:12:06.797Z,42.47
2018-10-09T13:14:43.706Z,42.07
2018-10-09T13:17:14.921Z,42.30
2018-10-09T13:19:45.139Z,42.67
2018-10-09T13:22:15.648Z,42.63
2018-10-09T13:24:45.765Z,42.27
2018-10-09T13:27:15.886Z,43.00
2018-10-09T13:29:45.964Z,42.70
2018-10-09T13:32:15.978Z,42.30
2018-10-09T13:34:46.967Z,41.90
2018-10-09T13:37:17.168Z,42.57
2018-10-09T13:39:50.178Z,42.10
2018-10-09T13:42:23.058Z,42.37
2018-10-09T13:44:53.142Z,42.23
2018-10-09T13:47:23.524Z,42.80
2018-10-09T13:49:53.665Z,42.57
2018-10-09T13:52:23.822Z,43.10
2018-10-09T13:54:54.170Z,42.97
2018-10-09T13:57:24.340Z,42.23
2018-10-09T13:59:57.035Z,42.87
2018-10-09T14:02:27.174Z,43.20
2018-10-09T14:04:57.353Z,42.80
2018-10-09T14:07:27.456Z,42.70
2018-10-09T14:09:58.809Z,42.73
2018-10-09T14:12:29.079Z,42.90
2018-10-09T14:14:59.281Z,42.90
2018-10-09T14:17:29.407Z,43.70
2018-10-09T14:19:59.915Z,43.33
2018-10-09T14:22:30.034Z,43.07
2018-10-09T14:25:00.329Z,43.20
2018-10-09T14:27:30.454Z,43.27
2018-10-09T14:30:00.524Z,42.97
2018-10-09T14:32:30.731Z,43.07
2018-10-09T14:35:00.999Z,42.40
2018-10-09T14:37:31.392Z,42.73
2018-10-09T14:40:01.489Z,42.23
2018-10-09T14:42:38.550Z,43.33
2018-10-09T14:45:08.898Z,42.97
2018-10-09T14:47:39.417Z,43.13
2018-10-09T14:50:09.562Z,43.17
2018-10-09T14:52:39.604Z,43.23
2018-10-09T14:55:09.670Z,43.93
2018-10-09T14:57:41.118Z,44.17
2018-10-09T15:00:12.073Z,43.70
2018-10-09T15:02:42.891Z,43.97
2018-10-09T15:05:12.974Z,43.70
2018-10-09T15:07:43.273Z,44.57
2018-10-09T15:10:13.273Z,45.07
2018-10-09T15:12:44.109Z,45.20
2018-10-09T15:15:14.590Z,45.83
2018-10-09T15:17:44.896Z,45.87
2018-10-09T15:20:15.131Z,45.80
2018-10-09T15:22:45.443Z,46.10
2018-10-09T15:25:15.680Z,46.63
2018-10-09T15:27:50.204Z,45.50
2018-10-09T15:30:21.836Z,46.73
2018-10-09T15:32:52.181Z,45.63
2018-10-09T15:35:22.736Z,46.00
2018-10-09T15:37:53.275Z,46.10
2018-10-09T15:40:23.318Z,45.80
2018-10-09T15:42:53.748Z,45.67
2018-10-09T15:45:23.737Z,46.90
2018-10-09T15:47:53.702Z,45.73
2018-10-09T15:50:23.884Z,45.50
2018-10-09T15:52:53.847Z,46.30
2018-10-09T15:55:23.883Z,45.97
2018-10-09T15:57:53.978Z,46.20
2018-10-09T16:00:24.269Z,46.43
2018-10-09T16:02:54.554Z,45.83
2018-10-09T16:05:25.332Z,46.47
2018-10-09T16:07:55.738Z,46.20
2018-10-09T16:10:27.903Z,45.30
2018-10-09T16:13:00.504Z,44.67
2018-10-09T16:15:31.162Z,45.23
2018-10-09T16:18:01.465Z,45.80
2018-10-09T16:20:31.626Z,46.37
2018-10-09T16:23:08.624Z,46.23
2018-10-09T16:25:38.974Z,45.07
2018-10-09T16:28:09.262Z,44.47
2018-10-09T16:30:39.409Z,44.63
2018-10-09T16:33:09.681Z,45.80
2018-10-09T16:35:40.285Z,45.27
2018-10-09T16:38:10.569Z,45.17
2018-10-09T16:40:40.634Z,45.30
2018-10-09T16:43:10.963Z,46.20
2018-10-09T16:45:41.481Z,45.73
2018-10-09T16:48:11.829Z,46.23
2018-10-09T16:50:42.076Z,45.70
2018-10-09T16:53:12.259Z,45.77
2018-10-09T16:55:42.358Z,45.80
2018-10-09T16:58:12.618Z,45.33
2018-10-09T17:00:45.076Z,45.67
2018-10-09T17:03:15.819Z,44.93
2018-10-09T17:05:46.420Z,44.97
2018-10-09T17:08:16.484Z,44.70
2018-10-09T17:10:47.332Z,45.33
2018-10-09T17:13:17.589Z,45.20
2018-10-09T17:15:48.014Z,44.77
2018-10-09T17:18:18.321Z,44.37
2018-10-09T17:20:48.566Z,43.93
2018-10-09T17:23:19.112Z,43.90
2018-10-09T17:25:49.294Z,43.63
2018-10-09T17:28:19.666Z,43.27
2018-10-09T17:30:49.772Z,44.77
2018-10-09T17:33:20.116Z,44.17
2018-10-09T17:35:49.979Z,46.97
2018-10-09T17:38:21.926Z,43.47
2018-10-09T17:40:54.462Z,43.87
2018-10-09T17:43:24.845Z,44.30
2018-10-09T17:45:55.292Z,43.37
2018-10-09T17:48:25.600Z,44.40
2018-10-09T17:50:56.252Z,43.73
2018-10-09T17:53:29.277Z,44.20
2018-10-09T17:56:02.598Z,44.07
2018-10-09T17:58:32.557Z,42.73
2018-10-09T18:01:03.162Z,43.27
2018-10-09T18:03:34.361Z,43.47
2018-10-09T18:06:04.911Z,43.13
2018-10-09T18:08:35.108Z,44.43
2018-10-09T18:11:05.642Z,42.80
2018-10-09T18:13:35.808Z,43.50
2018-10-09T18:16:06.024Z,43.07
2018-10-09T18:18:36.475Z,43.37
2018-10-09T18:21:06.604Z,43.13
2018-10-09T18:23:36.811Z,43.60
2018-10-09T18:26:07.185Z,43.27
2018-10-09T18:28:39.165Z,43.43
2018-10-09T18:31:09.577Z,43.30
2018-10-09T18:33:39.863Z,42.83
2018-10-09T18:36:10.063Z,43.10
2018-10-09T18:38:40.922Z,41.47
2018-10-09T18:41:11.760Z,41.47
2018-10-09T18:43:42.216Z,41.70
2018-10-09T18:46:12.799Z,42.10
2018-10-09T18:48:42.966Z,42.27
2018-10-09T18:51:13.413Z,42.63
2018-10-09T18:53:44.525Z,41.40
2018-10-09T18:56:14.853Z,42.00
2018-10-09T18:58:45.082Z,42.60
2018-10-09T19:01:15.360Z,51.43
2018-10-09T19:03:45.569Z,42.80
2018-10-09T19:06:16.471Z,42.23
2018-10-09T19:08:46.943Z,41.97
2018-10-09T19:11:17.322Z,42.23
2018-10-09T19:13:47.618Z,42.43
2018-10-09T19:16:17.914Z,42.00
2018-10-09T19:18:47.985Z,43.13
2018-10-09T19:21:17.999Z,42.13
2018-10-09T19:23:48.007Z,42.73
2018-10-09T19:26:18.553Z,42.20
2018-10-09T19:28:48.569Z,42.50
2018-10-09T19:31:18.801Z,42.10
2018-10-09T19:33:48.814Z,42.67
2018-10-09T19:36:19.042Z,42.00
2018-10-09T19:38:49.595Z,42.67
2018-10-09T19:41:19.707Z,42.97
2018-10-09T19:43:50.106Z,42.30
2018-10-09T19:46:21.020Z,42.20
2018-10-09T19:48:51.608Z,42.60
2018-10-09T19:51:22.857Z,43.67
2018-10-09T19:53:52.781Z,42.20
2018-10-09T19:56:22.886Z,42.67
2018-10-09T19:58:53.251Z,42.53
2018-10-09T20:01:24.045Z,43.10
2018-10-09T20:03:54.246Z,43.03
2018-10-09T20:06:24.789Z,43.33
2018-10-09T20:08:55.021Z,44.73
2018-10-09T20:11:25.195Z,43.70
2018-10-09T20:13:55.592Z,43.60
2018-10-09T20:16:25.962Z,43.87
2018-10-09T20:18:56.105Z,43.03
2018-10-09T20:21:26.286Z,43.13
2018-10-09T20:23:56.395Z,43.03
2018-10-09T20:26:26.497Z,43.20
2018-10-09T20:28:56.674Z,43.57
2018-10-09T20:31:26.807Z,42.83
2018-10-09T20:33:57.158Z,43.47
2018-10-09T20:36:27.484Z,43.30
2018-10-09T20:38:57.559Z,42.67
2018-10-09T20:41:28.121Z,42.93
2018-10-09T20:43:58.357Z,42.63
2018-10-09T20:46:28.659Z,42.47
2018-10-09T20:48:59.621Z,42.40
2018-10-09T20:51:29.587Z,42.10
2018-10-09T20:53:59.933Z,42.73
2018-10-09T20:56:30.360Z,43.30
2018-10-09T20:59:00.847Z,43.30
2018-10-09T21:01:30.854Z,42.20
2018-10-09T21:04:02.617Z,42.40
2018-10-09T21:06:32.925Z,42.50
2018-10-09T21:09:03.321Z,42.17
2018-10-09T21:11:33.598Z,42.60
2018-10-09T21:14:03.831Z,41.83
2018-10-09T21:16:34.555Z,42.17
2018-10-09T21:19:05.716Z,41.23
2018-10-09T21:21:36.167Z,41.83
2018-10-09T21:24:06.941Z,42.33
2018-10-09T21:26:37.625Z,41.83
2018-10-09T21:29:08.018Z,41.60
2018-10-09T21:31:38.064Z,41.43
2018-10-09T21:34:08.975Z,41.70
2018-10-09T21:36:39.264Z,42.07
2018-10-09T21:39:10.336Z,41.53
2018-10-09T21:41:40.577Z,42.10
2018-10-09T21:44:11.141Z,41.73
2018-10-09T21:46:41.487Z,42.07
2018-10-09T21:49:11.598Z,41.63
2018-10-09T21:51:42.584Z,41.53
2018-10-09T21:54:12.782Z,41.77
2018-10-09T21:56:42.697Z,41.50
2018-10-09T21:59:12.658Z,42.53
2018-10-09T22:01:45.729Z,41.93
2018-10-09T22:04:15.973Z,41.90
2018-10-09T22:06:46.321Z,41.40
2018-10-09T22:09:16.307Z,41.60
2018-10-09T22:11:46.327Z,41.77
2018-10-09T22:14:16.666Z,41.73
2018-10-09T22:16:46.669Z,41.60
2018-10-09T22:19:17.212Z,41.47
2018-10-09T22:21:48.363Z,41.90
2018-10-09T22:24:18.608Z,41.53
2018-10-09T22:26:48.630Z,41.80
2018-10-09T22:29:18.827Z,41.80
2018-10-09T22:31:49.062Z,41.83
2018-10-09T22:34:20.058Z,42.30
2018-10-09T22:36:50.240Z,42.13
2018-10-09T22:39:20.565Z,41.03
2018-10-09T22:41:50.808Z,41.50
2018-10-09T22:44:21.255Z,41.60
2018-10-09T22:46:51.175Z,42.10
2018-10-09T22:49:21.286Z,42.00
2018-10-09T22:51:54.271Z,41.77
2018-10-09T22:54:24.254Z,41.37
2018-10-09T22:56:54.463Z,41.33
2018-10-09T22:59:25.346Z,41.17
2018-10-09T23:01:55.589Z,48.37
2018-10-09T23:04:25.875Z,41.60
2018-10-09T23:06:56.137Z,41.37
2018-10-09T23:09:26.502Z,42.03
2018-10-09T23:11:59.669Z,41.87
2018-10-09T23:14:29.865Z,42.47
2018-10-09T23:17:00.940Z,41.07
2018-10-09T23:19:31.837Z,41.20
2018-10-09T23:22:02.839Z,42.23
2018-10-09T23:24:33.022Z,42.93
2018-10-09T23:27:03.471Z,45.10
2018-10-09T23:29:33.589Z,44.57
2018-10-09T23:32:03.592Z,42.50
2018-10-09T23:34:33.735Z,43.33
2018-10-09T23:37:04.074Z,42.30
2018-10-09T23:39:34.142Z,42.83
2018-10-09T23:42:04.297Z,43.20
2018-10-09T23:44:34.568Z,43.03
2018-10-09T23:47:04.542Z,42.97
2018-10-09T23:49:35.113Z,42.87
2018-10-09T23:52:05.473Z,42.47
2018-10-09T23:54:35.557Z,42.93
2018-10-09T23:57:06.398Z,42.93
2018-10-09T23:59:36.870Z,42.93
